Time;durP1;ratioP1;P1;durP2;ratioP2;P2;SDS_P1;SDS_P2;PMS_P1;PMS_P2;Temp;Humidity;BMP_temperature;BMP_pressure;BME280_temperature;BME280_humidity;BME280_pressure;Samples;Min_cycle;Max_cycle;Signal;HPM_P1;HPM_P2
2023/06/24 00:02:07;;;;;;;5.10;2.40;;;25.80;61.90;;;;;;5005008;28;20022;-82
2023/06/24 00:04:32;;;;;;;2.88;2.30;;;25.70;62.20;;;;;;4996079;28;20062;-83
2023/06/24 00:06:59;;;;;;;3.55;2.55;;;25.70;62.50;;;;;;4994706;28;20104;-82
2023/06/24 00:09:29;;;;;;;3.28;2.30;;;25.60;62.60;;;;;;5002929;28;20042;-82
2023/06/24 00:11:55;;;;;;;2.65;2.17;;;25.60;62.80;;;;;;5010214;28;20526;-82
2023/06/24 00:14:23;;;;;;;3.53;2.30;;;25.60;62.90;;;;;;5009184;28;20104;-82
2023/06/24 00:16:53;;;;;;;4.38;2.28;;;25.60;63.10;;;;;;5010518;28;20026;-82
2023/06/24 00:19:23;;;;;;;3.13;2.40;;;25.40;63.00;;;;;;4994851;28;20030;-84
2023/06/24 00:21:53;;;;;;;2.30;1.83;;;25.40;63.30;;;;;;4994751;28;20030;-83
2023/06/24 00:24:25;;;;;;;3.40;2.40;;;25.40;63.50;;;;;;4990822;28;20438;-83
2023/06/24 00:26:54;;;;;;;3.78;2.78;;;25.40;63.50;;;;;;4978907;28;20045;-83
2023/06/24 00:29:20;;;;;;;4.20;2.33;;;25.40;63.90;;;;;;5002193;28;20037;-83
2023/06/24 00:31:46;;;;;;;4.10;2.88;;;25.30;63.80;;;;;;5008872;28;20026;-83
2023/06/24 00:34:12;;;;;;;2.50;2.03;;;25.30;63.80;;;;;;5008558;28;20041;-83
2023/06/24 00:36:38;;;;;;;4.32;2.53;;;25.30;64.30;;;;;;5010989;28;20025;-83
2023/06/24 00:39:05;;;;;;;4.03;2.58;;;25.30;64.70;;;;;;4994402;28;20521;-83
2023/06/24 00:41:32;;;;;;;5.05;2.50;;;25.30;65.00;;;;;;5002709;28;20065;-83
2023/06/24 00:43:58;;;;;;;3.85;2.30;;;25.30;65.10;;;;;;5007912;28;20026;-84
2023/06/24 00:46:28;;;;;;;5.13;2.65;;;25.30;65.00;;;;;;4997406;28;20026;-84
2023/06/24 00:48:57;;;;;;;4.38;2.33;;;25.40;65.30;;;;;;4982863;28;20057;-83
2023/06/24 00:51:30;;;;;;;8.93;2.85;;;25.40;65.00;;;;;;4999687;28;20030;-83
2023/06/24 00:53:59;;;;;;;4.43;2.33;;;25.40;65.00;;;;;;4999343;28;20088;-83
2023/06/24 00:56:38;;;;;;;3.10;2.20;;;25.40;64.90;;;;;;5007443;28;20040;-82
2023/06/24 00:59:04;;;;;;;3.65;2.40;;;25.40;65.00;;;;;;4980415;28;20126;-83
2023/06/24 01:01:35;;;;;;;12.25;2.80;;;25.40;64.70;;;;;;5001243;28;20099;-83
2023/06/24 01:04:03;;;;;;;2.38;1.90;;;25.40;64.00;;;;;;4993617;28;20034;-82
2023/06/24 01:06:29;;;;;;;4.03;2.42;;;25.40;63.90;;;;;;5009129;28;20106;-82
2023/06/24 01:09:02;;;;;;;3.63;2.70;;;25.40;63.80;;;;;;4997377;28;20136;-82
2023/06/24 01:11:29;;;;;;;2.95;2.30;;;25.40;63.30;;;;;;5010441;28;20021;-82
2023/06/24 01:13:56;;;;;;;5.93;2.80;;;25.40;62.20;;;;;;4994395;28;20030;-82
2023/06/24 01:16:46;;;;;;;3.92;2.42;;;25.40;61.10;;;;;;4998553;28;20018;-82
2023/06/24 01:19:43;;;;;;;4.07;1.95;;;25.40;60.90;;;;;;4999857;28;20100;-82
2023/06/24 01:22:46;;;;;;;3.33;2.38;;;25.40;61.20;;;;;;4996186;28;20026;-82
2023/06/24 01:25:49;;;;;;;4.60;2.75;;;25.40;61.70;;;;;;4980513;28;20034;-82
2023/06/24 01:28:20;;;;;;;3.88;2.25;;;25.40;61.70;;;;;;5008081;28;20030;-82
2023/06/24 01:31:07;;;;;;;2.40;2.20;;;25.40;61.90;;;;;;5005924;28;20027;-82
2023/06/24 01:33:44;;;;;;;3.38;2.65;;;25.40;62.50;;;;;;5011649;28;20034;-82
2023/06/24 01:36:14;;;;;;;2.70;2.30;;;25.30;62.90;;;;;;4989250;28;20061;-82
2023/06/24 01:38:52;;;;;;;;;;;25.30;62.80;;;;;;5008714;28;20073;-82
2023/06/24 01:41:24;;;;;;;3.03;2.50;;;25.30;63.70;;;;;;4999958;28;19916;-82
2023/06/24 01:43:53;;;;;;;2.90;2.30;;;25.30;63.00;;;;;;4992986;28;20053;-84
2023/06/24 01:46:22;;;;;;;2.72;2.20;;;25.30;63.30;;;;;;4996939;28;20031;-83
2023/06/24 01:48:51;;;;;;;6.87;2.30;;;25.30;63.40;;;;;;4998034;28;20069;-83
2023/06/24 01:51:19;;;;;;;6.82;2.55;;;25.30;63.50;;;;;;5001756;28;20031;-83
2023/06/24 01:53:54;;;;;;;5.63;2.75;;;25.30;64.00;;;;;;5003560;28;20033;-83
2023/06/24 01:56:22;;;;;;;4.03;2.75;;;25.30;64.00;;;;;;5001004;28;20058;-82
2023/06/24 01:58:52;;;;;;;3.78;2.70;;;25.30;64.50;;;;;;5007288;28;20026;-82
2023/06/24 02:01:19;;;;;;;5.18;2.63;;;25.30;64.60;;;;;;4993650;28;20061;-83
2023/06/24 02:03:46;;;;;;;5.35;3.22;;;25.30;64.50;;;;;;5001441;28;20037;-82
2023/06/24 02:06:13;;;;;;;5.05;2.83;;;25.30;64.50;;;;;;4993146;28;20042;-82
2023/06/24 02:08:41;;;;;;;3.88;2.65;;;25.30;64.80;;;;;;4994246;28;20055;-82
2023/06/24 02:11:09;;;;;;;3.47;2.97;;;25.30;65.20;;;;;;5003115;28;20450;-82
2023/06/24 02:13:37;;;;;;;3.17;2.50;;;25.30;65.20;;;;;;4992740;28;20138;-84
2023/06/24 02:16:06;;;;;;;3.25;2.42;;;25.30;65.10;;;;;;4995074;28;20038;-84
2023/06/24 02:18:35;;;;;;;3.55;2.45;;;25.20;65.30;;;;;;4995883;28;20038;-86
2023/06/24 02:21:01;;;;;;;5.10;2.40;;;25.10;65.50;;;;;;4992219;28;20362;-83
2023/06/24 02:23:28;;;;;;;6.60;2.72;;;25.00;65.80;;;;;;5001013;28;20514;-84
2023/06/24 02:25:54;;;;;;;3.15;2.50;;;25.10;65.90;;;;;;5004038;28;20038;-84
2023/06/24 02:28:21;;;;;;;4.05;3.00;;;25.00;66.10;;;;;;5010455;28;20072;-84
2023/06/24 02:30:47;;;;;;;4.80;2.60;;;25.00;66.60;;;;;;5001067;28;20041;-85
2023/06/24 02:33:14;;;;;;;4.25;2.72;;;25.00;66.80;;;;;;4999148;28;20018;-84
2023/06/24 02:35:41;;;;;;;4.03;2.58;;;25.00;67.00;;;;;;5001783;28;20068;-84
2023/06/24 02:38:07;;;;;;;6.00;2.80;;;25.00;67.70;;;;;;5010201;28;20042;-84
2023/06/24 02:40:33;;;;;;;5.22;3.05;;;25.00;68.20;;;;;;4995041;28;20038;-85
2023/06/24 02:42:59;;;;;;;6.43;3.08;;;25.00;68.20;;;;;;5009151;28;20106;-85
2023/06/24 02:45:26;;;;;;;4.75;2.75;;;25.00;68.30;;;;;;5002471;28;20425;-86
2023/06/24 02:47:53;;;;;;;4.35;2.42;;;25.00;68.00;;;;;;4996999;28;20038;-84
2023/06/24 02:50:20;;;;;;;4.18;2.65;;;25.00;68.30;;;;;;4996024;28;20042;-82
2023/06/24 02:52:47;;;;;;;3.90;2.40;;;24.90;68.40;;;;;;5011847;28;20038;-83
2023/06/24 02:55:14;;;;;;;3.50;2.65;;;24.90;68.60;;;;;;4995828;28;20200;-83
2023/06/24 02:57:41;;;;;;;3.53;2.72;;;24.90;68.70;;;;;;5001183;28;20069;-83
2023/06/24 03:00:14;;;;;;;4.00;2.53;;;24.90;68.60;;;;;;5004807;28;20394;-84
2023/06/24 03:02:42;;;;;;;3.78;2.45;;;24.90;68.90;;;;;;5011182;28;20112;-84
2023/06/24 03:05:10;;;;;;;3.67;2.58;;;24.90;68.70;;;;;;4999422;28;20112;-83
2023/06/24 03:07:37;;;;;;;5.13;2.35;;;24.90;68.90;;;;;;5006963;28;20047;-88
2023/06/24 03:10:05;;;;;;;5.72;2.42;;;24.90;68.80;;;;;;4987650;28;20046;-87
2023/06/24 03:12:31;;;;;;;6.07;3.20;;;24.90;68.90;;;;;;5001994;28;20053;-86
2023/06/24 03:14:57;;;;;;;5.05;3.00;;;24.90;68.90;;;;;;4998554;28;20030;-86
2023/06/24 03:17:24;;;;;;;6.15;3.17;;;24.90;69.00;;;;;;5008502;28;20154;-87
2023/06/24 03:19:50;;;;;;;4.93;2.83;;;24.90;69.20;;;;;;4996174;28;20117;-88
2023/06/24 03:22:17;;;;;;;4.10;2.70;;;24.90;69.40;;;;;;4995818;28;20558;-88
2023/06/24 03:24:43;;;;;;;4.60;2.90;;;24.80;68.60;;;;;;5008844;28;20084;-88
2023/06/24 03:27:08;;;;;;;5.05;3.00;;;24.80;68.70;;;;;;5010172;28;20073;-87
2023/06/24 03:29:34;;;;;;;3.67;2.53;;;24.80;68.90;;;;;;5004178;28;20074;-88
2023/06/24 03:32:00;;;;;;;4.15;2.97;;;24.70;69.10;;;;;;4996691;28;20039;-89
2023/06/24 03:34:26;;;;;;;5.82;2.88;;;24.70;69.20;;;;;;4991764;28;20154;-88
2023/06/24 03:36:54;;;;;;;6.85;3.15;;;24.60;69.40;;;;;;5011147;28;20105;-87
2023/06/24 03:39:20;;;;;;;5.65;3.20;;;24.60;69.60;;;;;;4997663;28;20018;-86
2023/06/24 03:41:46;;;;;;;4.57;3.10;;;24.60;70.20;;;;;;4999874;28;20470;-87
2023/06/24 03:44:12;;;;;;;4.70;2.97;;;24.60;70.60;;;;;;4998114;28;20034;-87
2023/06/24 03:46:38;;;;;;;6.05;2.88;;;24.60;70.50;;;;;;5002893;28;20066;-88
2023/06/24 03:49:03;;;;;;;3.85;2.70;;;24.60;70.70;;;;;;5013461;28;20493;-90
2023/06/24 03:51:29;;;;;;;4.47;2.83;;;24.70;70.60;;;;;;5014670;28;20045;-89
2023/06/24 03:53:55;;;;;;;4.10;2.45;;;24.70;71.20;;;;;;5011718;28;20108;-90
2023/06/24 03:56:21;;;;;;;4.75;3.03;;;24.70;70.80;;;;;;5008255;28;20033;-89
2023/06/24 03:58:46;;;;;;;6.03;3.28;;;24.70;70.80;;;;;;5000904;28;20034;-88
2023/06/24 04:01:12;;;;;;;3.88;2.90;;;24.60;70.60;;;;;;4998731;28;20529;-89
2023/06/24 04:03:38;;;;;;;4.40;2.78;;;24.60;70.40;;;;;;5006840;28;20032;-88
2023/06/24 04:06:03;;;;;;;4.03;2.95;;;24.60;70.30;;;;;;5006742;28;20478;-88
2023/06/24 04:08:29;;;;;;;4.65;2.92;;;24.60;70.20;;;;;;5009533;28;20061;-87
2023/06/24 04:11:03;;;;;;;4.18;2.60;;;24.60;69.60;;;;;;5013103;28;20034;-88
2023/06/24 04:13:29;;;;;;;3.20;2.75;;;24.60;69.00;;;;;;5014208;28;20084;-87
2023/06/24 04:15:55;;;;;;;4.07;3.17;;;24.50;68.60;;;;;;4997683;28;20040;-87
2023/06/24 04:18:21;;;;;;;4.25;3.03;;;24.50;68.60;;;;;;4994871;28;20364;-87
2023/06/24 04:20:46;;;;;;;4.00;2.70;;;24.50;68.40;;;;;;4999414;28;20033;-87
2023/06/24 04:23:14;;;;;;;3.45;2.80;;;24.50;68.20;;;;;;5005981;28;20099;-87
2023/06/24 04:25:40;;;;;;;4.07;2.88;;;24.50;67.60;;;;;;4999248;28;20068;-90
2023/06/24 04:28:06;;;;;;;4.50;2.72;;;24.50;67.70;;;;;;4994044;28;20364;-89
2023/06/24 04:30:35;;;;;;;4.25;2.78;;;24.50;67.90;;;;;;4994189;28;20045;-88
2023/06/24 04:33:01;;;;;;;4.63;2.70;;;24.50;68.00;;;;;;4989983;28;20113;-88
2023/06/24 04:35:26;;;;;;;6.72;3.35;;;24.50;68.20;;;;;;4993040;28;20129;-89
2023/06/24 04:37:52;;;;;;;4.72;3.30;;;24.50;68.40;;;;;;4995293;28;20039;-89
2023/06/24 04:40:19;;;;;;;5.97;3.45;;;24.50;68.70;;;;;;4998321;28;20101;-89
2023/06/24 04:42:45;;;;;;;7.43;3.92;;;24.50;69.00;;;;;;4994238;28;20084;-89
2023/06/24 04:45:11;;;;;;;5.47;3.30;;;24.40;69.50;;;;;;5000037;28;20375;-89
2023/06/24 04:47:36;;;;;;;4.68;3.35;;;24.40;70.10;;;;;;4994047;28;20039;-89
2023/06/24 04:50:03;;;;;;;5.75;3.92;;;24.40;70.30;;;;;;4994007;28;20066;-89
2023/06/24 04:52:28;;;;;;;5.20;3.95;;;24.40;70.70;;;;;;4994389;28;20061;-89
2023/06/24 04:54:54;;;;;;;5.75;4.35;;;24.30;70.90;;;;;;4996457;28;20348;-89
2023/06/24 04:57:26;;;;;;;6.53;4.18;;;24.30;71.10;;;;;;5002207;28;20030;-89
2023/06/24 04:59:52;;;;;;;6.53;4.05;;;24.30;71.20;;;;;;4996571;28;20032;-90
2023/06/24 05:02:18;;;;;;;6.47;4.20;;;24.30;71.40;;;;;;5004943;28;20100;-89
2023/06/24 05:04:43;;;;;;;6.72;3.70;;;24.30;71.50;;;;;;5003073;28;20029;-88
2023/06/24 05:07:09;;;;;;;4.63;3.15;;;24.30;71.50;;;;;;4999426;28;20022;-87
2023/06/24 05:09:37;;;;;;;6.88;4.05;;;24.30;72.50;;;;;;5015386;28;20529;-87
2023/06/24 05:12:04;;;;;;;6.85;3.92;;;24.30;71.50;;;;;;5012293;28;20048;-87
2023/06/24 05:14:30;;;;;;;5.63;3.60;;;24.30;71.00;;;;;;5015611;28;20066;-88
2023/06/24 05:16:56;;;;;;;5.60;3.10;;;24.30;70.50;;;;;;4998739;28;20032;-88
2023/06/24 05:19:21;;;;;;;5.22;3.13;;;24.30;70.00;;;;;;5001333;28;20105;-87
2023/06/24 05:21:47;;;;;;;8.13;3.17;;;24.30;69.70;;;;;;5014889;28;20512;-87
2023/06/24 05:24:13;;;;;;;5.28;3.72;;;24.40;69.60;;;;;;5014281;28;20555;-87
2023/06/24 05:26:38;;;;;;;5.85;3.42;;;24.40;69.50;;;;;;5013783;28;20100;-87
2023/06/24 05:29:04;;;;;;;4.45;2.90;;;24.40;69.60;;;;;;4996584;28;20496;-89
2023/06/24 05:31:30;;;;;;;3.97;2.40;;;24.40;69.30;;;;;;5004718;28;20398;-86
2023/06/24 05:33:55;;;;;;;4.50;3.15;;;24.40;69.00;;;;;;5008807;28;20137;-78
2023/06/24 05:36:21;;;;;;;5.28;3.30;;;24.40;69.00;;;;;;5008952;28;20026;-77
2023/06/24 05:38:48;;;;;;;4.35;3.40;;;24.40;69.50;;;;;;5003900;28;20045;-79
2023/06/24 05:41:14;;;;;;;6.35;3.55;;;24.40;69.70;;;;;;5005891;28;20105;-79
2023/06/24 05:43:42;;;;;;;5.63;3.30;;;24.50;69.90;;;;;;5008600;28;20109;-79
2023/06/24 05:46:08;;;;;;;7.63;4.55;;;24.50;70.20;;;;;;5001071;28;20430;-79
2023/06/24 05:48:33;;;;;;;8.55;3.35;;;24.50;70.20;;;;;;5007690;28;20107;-79
2023/06/24 05:50:59;;;;;;;3.08;2.50;;;24.40;70.00;;;;;;4996428;28;20065;-80
2023/06/24 05:53:25;;;;;;;4.70;3.33;;;24.50;70.00;;;;;;5012853;28;20042;-78
2023/06/24 05:55:50;;;;;;;3.78;2.53;;;24.50;69.30;;;;;;5003381;28;20053;-78
2023/06/24 05:58:16;;;;;;;5.35;2.60;;;24.60;70.10;;;;;;4993533;28;20037;-78
2023/06/24 06:00:42;;;;;;;4.65;2.92;;;24.70;70.60;;;;;;4993323;28;20106;-78
2023/06/24 06:03:07;;;;;;;3.83;2.55;;;24.80;70.30;;;;;;4997300;28;20413;-79
2023/06/24 06:05:33;;;;;;;6.22;2.45;;;24.90;70.40;;;;;;5010533;28;20025;-79
2023/06/24 06:07:59;;;;;;;16.08;3.17;;;25.10;70.60;;;;;;5005532;28;20052;-79
2023/06/24 06:10:25;;;;;;;29.35;4.15;;;25.10;70.60;;;;;;4993462;28;20058;-79
2023/06/24 06:12:50;;;;;;;18.88;4.22;;;25.20;70.90;;;;;;4994618;28;20439;-79
2023/06/24 06:15:16;;;;;;;13.25;3.13;;;25.30;71.00;;;;;;5010386;28;20034;-79
2023/06/24 06:17:42;;;;;;;8.90;3.33;;;25.40;71.30;;;;;;5002673;28;20041;-80
2023/06/24 06:20:08;;;;;;;5.65;3.25;;;25.50;71.20;;;;;;5003325;28;20041;-80
2023/06/24 06:22:37;;;;;;;4.80;2.35;;;25.50;70.90;;;;;;5014660;28;20038;-79
2023/06/24 06:25:05;;;;;;;4.13;2.43;;;25.60;70.50;;;;;;4999926;28;20410;-80
2023/06/24 06:27:30;;;;;;;3.88;2.30;;;25.60;70.90;;;;;;5014833;28;20032;-83
2023/06/24 06:29:56;;;;;;;5.03;2.65;;;25.60;70.50;;;;;;5000140;28;20026;-81
2023/06/24 06:32:22;;;;;;;3.95;2.22;;;25.70;71.00;;;;;;5002650;28;20046;-82
2023/06/24 06:34:47;;;;;;;3.65;2.22;;;25.70;70.90;;;;;;4996193;28;20043;-83
2023/06/24 06:37:13;;;;;;;2.95;2.20;;;25.70;70.90;;;;;;4996976;28;20026;-83
2023/06/24 06:39:39;;;;;;;3.75;2.58;;;25.70;70.70;;;;;;4998714;28;20077;-83
2023/06/24 06:42:05;;;;;;;4.03;2.42;;;25.70;70.60;;;;;;5007672;28;20079;-82
2023/06/24 06:44:30;;;;;;;3.65;2.28;;;25.70;70.60;;;;;;5006371;28;20031;-82
2023/06/24 06:46:56;;;;;;;4.03;2.15;;;25.80;70.70;;;;;;5015626;28;20343;-82
2023/06/24 06:49:22;;;;;;;4.18;2.65;;;25.90;70.80;;;;;;5016039;28;20037;-82
2023/06/24 06:51:48;;;;;;;4.57;2.95;;;25.90;70.30;;;;;;5008259;28;20048;-82
2023/06/24 06:54:13;;;;;;;3.90;2.60;;;26.00;70.40;;;;;;4999542;28;20037;-82
2023/06/24 06:56:39;;;;;;;5.78;2.45;;;26.00;70.70;;;;;;5002715;28;20034;-82
2023/06/24 06:59:05;;;;;;;4.25;2.50;;;26.10;70.90;;;;;;5002903;28;20023;-82
2023/06/24 07:01:31;;;;;;;3.67;2.78;;;26.20;70.90;;;;;;4997323;28;20031;-82
2023/06/24 07:03:56;;;;;;;8.13;2.40;;;26.20;70.30;;;;;;4995942;28;20026;-82
2023/06/24 07:06:22;;;;;;;4.50;2.30;;;26.30;70.50;;;;;;4996352;28;20037;-82
2023/06/24 07:08:48;;;;;;;2.30;2.00;;;26.30;70.30;;;;;;5005581;28;20038;-82
2023/06/24 07:11:14;;;;;;;2.53;1.85;;;26.40;69.60;;;;;;5002719;28;20081;-84
2023/06/24 07:13:39;;;;;;;5.40;2.58;;;26.50;69.30;;;;;;5002774;28;20036;-84
2023/06/24 07:16:05;;;;;;;2.42;1.92;;;26.50;69.10;;;;;;5012090;28;20026;-84
2023/06/24 07:18:31;;;;;;;3.38;2.13;;;26.60;67.90;;;;;;4994209;28;20109;-83
2023/06/24 07:20:59;;;;;;;4.32;2.22;;;26.60;67.80;;;;;;4994614;28;20173;-82
2023/06/24 07:23:25;;;;;;;2.70;2.00;;;26.60;67.60;;;;;;4998794;28;20089;-82
2023/06/24 07:25:50;;;;;;;4.53;1.73;;;26.70;67.30;;;;;;5003009;28;20072;-82
2023/06/24 07:28:16;;;;;;;3.63;2.00;;;26.70;67.50;;;;;;5002245;28;20018;-82
2023/06/24 07:30:42;;;;;;;2.25;2.00;;;26.80;67.10;;;;;;4996402;28;20030;-81
2023/06/24 07:33:08;;;;;;;5.85;2.78;;;26.80;66.70;;;;;;4997993;28;20041;-81
2023/06/24 07:35:34;;;;;;;5.32;2.05;;;26.90;67.10;;;;;;4995378;28;20042;-81
2023/06/24 07:38:00;;;;;;;4.43;2.08;;;26.90;66.90;;;;;;4995490;28;20046;-81
2023/06/24 07:40:26;;;;;;;2.03;1.80;;;27.00;65.60;;;;;;4995415;28;20022;-81
2023/06/24 07:42:53;;;;;;;3.03;1.95;;;27.00;65.40;;;;;;5008723;28;20026;-81
2023/06/24 07:45:18;;;;;;;3.05;1.85;;;27.10;65.40;;;;;;4996572;28;20038;-81
2023/06/24 07:47:44;;;;;;;3.47;1.90;;;27.10;65.60;;;;;;4995160;28;20041;-81
2023/06/24 07:50:10;;;;;;;2.55;1.80;;;27.20;64.70;;;;;;4993905;28;20026;-81
2023/06/24 07:52:37;;;;;;;2.50;1.70;;;27.20;65.20;;;;;;4995603;28;20077;-81
2023/06/24 07:55:03;;;;;;;2.42;1.60;;;27.20;65.70;;;;;;4995498;28;20030;-81
2023/06/24 07:57:29;;;;;;;3.88;1.92;;;27.20;65.40;;;;;;4995444;28;20519;-81
2023/06/24 07:59:55;;;;;;;2.08;1.50;;;27.20;65.50;;;;;;4995390;28;20463;-81
2023/06/24 08:02:21;;;;;;;2.63;1.50;;;27.30;65.30;;;;;;4994956;28;20027;-81
2023/06/24 08:04:46;;;;;;;4.40;1.65;;;27.40;64.10;;;;;;4995126;28;20348;-81
2023/06/24 08:07:12;;;;;;;4.32;1.50;;;27.40;63.90;;;;;;5002473;28;20087;-81
2023/06/24 08:09:38;;;;;;;2.25;2.05;;;27.50;63.80;;;;;;5001735;28;20069;-80
2023/06/24 08:12:04;;;;;;;3.58;2.03;;;27.60;63.90;;;;;;5000338;28;20110;-80
2023/06/24 08:14:29;;;;;;;1.60;1.45;;;27.60;63.90;;;;;;5002205;28;20113;-79
2023/06/24 08:16:55;;;;;;;3.47;1.77;;;27.70;63.60;;;;;;5001714;28;20101;-80
2023/06/24 08:19:21;;;;;;;1.80;1.45;;;27.80;63.90;;;;;;5001284;28;20034;-80
2023/06/24 08:21:46;;;;;;;2.83;2.15;;;27.80;63.60;;;;;;5003570;28;20427;-80
2023/06/24 08:24:12;;;;;;;3.28;1.38;;;27.90;63.40;;;;;;4994477;28;20467;-80
2023/06/24 08:26:38;;;;;;;4.07;1.70;;;28.00;62.90;;;;;;4994324;28;20386;-80
2023/06/24 08:29:03;;;;;;;2.35;1.83;;;27.90;62.50;;;;;;5009273;28;20429;-80
2023/06/24 08:31:29;;;;;;;2.30;1.80;;;28.00;62.60;;;;;;5005102;28;20023;-80
2023/06/24 08:33:58;;;;;;;3.33;1.88;;;27.90;61.90;;;;;;4992958;28;20024;-80
2023/06/24 08:36:28;;;;;;;2.87;2.03;;;28.00;61.10;;;;;;4993494;28;20037;-80
2023/06/24 08:38:53;;;;;;;3.23;2.20;;;28.00;60.90;;;;;;4998689;28;20025;-80
2023/06/24 08:41:19;;;;;;;2.13;1.75;;;28.00;61.40;;;;;;5000860;28;20026;-80
2023/06/24 08:43:45;;;;;;;1.83;1.60;;;28.10;61.60;;;;;;4988754;28;20027;-80
2023/06/24 08:46:13;;;;;;;1.77;1.48;;;28.20;61.20;;;;;;4994110;28;20046;-80
2023/06/24 08:48:42;;;;;;;2.42;1.65;;;28.20;59.30;;;;;;4993773;28;20030;-81
2023/06/24 08:51:09;;;;;;;3.10;1.80;;;28.20;59.50;;;;;;4994241;28;20588;-80
2023/06/24 08:53:37;;;;;;;1.85;1.63;;;28.30;59.90;;;;;;4993488;28;20501;-81
2023/06/24 08:56:04;;;;;;;2.13;1.63;;;28.30;61.40;;;;;;4994995;28;20383;-82
2023/06/24 08:58:30;;;;;;;2.97;1.77;;;28.50;62.00;;;;;;4996118;28;20470;-82
2023/06/24 09:00:56;;;;;;;3.15;1.80;;;28.50;62.00;;;;;;4993376;28;20014;-82
2023/06/24 09:03:22;;;;;;;2.38;1.80;;;28.60;61.80;;;;;;4979450;28;20031;-82
2023/06/24 09:05:48;;;;;;;3.25;1.70;;;28.70;61.60;;;;;;4992029;28;20122;-82
2023/06/24 09:08:15;;;;;;;2.28;1.73;;;28.80;62.00;;;;;;4994532;28;20141;-81
2023/06/24 09:10:41;;;;;;;1.95;1.55;;;28.90;61.30;;;;;;4992660;28;20033;-82
2023/06/24 09:13:07;;;;;;;2.78;1.90;;;29.00;61.40;;;;;;5000963;28;20169;-82
2023/06/24 09:15:33;;;;;;;2.45;2.05;;;29.00;61.00;;;;;;4993245;28;20030;-81
2023/06/24 09:18:02;;;;;;;3.15;1.70;;;29.00;60.40;;;;;;4992962;28;20030;-82
2023/06/24 09:20:30;;;;;;;4.03;1.60;;;29.10;60.70;;;;;;4993623;28;20022;-82
2023/06/24 09:23:14;;;;;;;2.22;2.03;;;29.10;60.40;;;;;;4992726;28;20061;-82
2023/06/24 09:25:40;;;;;;;3.10;2.00;;;29.10;58.40;;;;;;4993515;28;20096;-82
2023/06/24 09:28:05;;;;;;;2.95;2.05;;;29.00;59.40;;;;;;4994592;28;20024;-82
2023/06/24 09:30:31;;;;;;;3.05;2.15;;;29.00;59.50;;;;;;4997249;28;20105;-82
2023/06/24 09:32:57;;;;;;;1.95;1.73;;;29.10;59.50;;;;;;4993749;28;20076;-82
2023/06/24 09:35:24;;;;;;;2.60;1.60;;;29.10;59.20;;;;;;5005370;28;20034;-82
2023/06/24 09:37:55;;;;;;;4.68;1.95;;;29.10;59.30;;;;;;4994060;28;20173;-82
2023/06/24 09:40:21;;;;;;;2.75;1.65;;;29.20;58.90;;;;;;4993496;28;20041;-82
2023/06/24 09:43:05;;;;;;;3.47;1.73;;;29.20;59.00;;;;;;4994053;28;20034;-82
2023/06/24 09:45:31;;;;;;;1.98;1.70;;;29.30;59.30;;;;;;5011415;28;20065;-82
2023/06/24 09:48:00;;;;;;;6.85;2.38;;;29.30;59.40;;;;;;4998782;28;20060;-81
2023/06/24 09:50:26;;;;;;;2.83;2.00;;;29.30;59.20;;;;;;5013910;28;20026;-82
2023/06/24 09:52:53;;;;;;;3.08;2.25;;;29.30;59.10;;;;;;4998366;28;20029;-82
2023/06/24 09:55:18;;;;;;;2.28;1.75;;;29.40;59.50;;;;;;4997646;28;20038;-82
2023/06/24 09:57:51;;;;;;;2.60;1.83;;;29.40;59.20;;;;;;5008728;28;20084;-82
2023/06/24 10:00:19;;;;;;;2.05;1.60;;;29.40;58.90;;;;;;5004689;28;20080;-82
2023/06/24 10:02:45;;;;;;;2.58;2.25;;;29.50;59.00;;;;;;5016653;28;20109;-82
2023/06/24 10:05:15;;;;;;;3.05;2.17;;;29.70;59.70;;;;;;5010901;28;20121;-82
2023/06/24 10:07:41;;;;;;;;;;;29.90;58.10;;;;;;5000718;28;20052;-82
2023/06/24 10:10:08;;;;;;;2.05;1.60;;;30.00;58.00;;;;;;5004175;28;19909;-82
2023/06/24 10:12:35;;;;;;;2.22;1.67;;;30.10;58.70;;;;;;4996514;28;20122;-82
2023/06/24 10:15:01;;;;;;;1.80;1.60;;;30.30;58.60;;;;;;4997067;28;20026;-82
2023/06/24 10:17:27;;;;;;;3.25;1.83;;;30.40;58.00;;;;;;4991889;28;20386;-82
2023/06/24 10:19:56;;;;;;;1.58;1.42;;;30.50;57.10;;;;;;4991391;28;20061;-82
2023/06/24 10:22:26;;;;;;;1.67;1.38;;;30.70;54.90;;;;;;4996510;28;20033;-81
2023/06/24 10:24:52;;;;;;;1.40;1.17;;;30.80;50.30;;;;;;4996581;28;20018;-81
2023/06/24 10:27:23;;;;;;;1.90;1.33;;;30.80;53.10;;;;;;4994767;28;20105;-81
2023/06/24 10:29:51;;;;;;;2.15;1.33;;;30.90;53.90;;;;;;4996548;28;20022;-82
2023/06/24 10:32:18;;;;;;;1.17;1.05;;;31.00;53.30;;;;;;4994593;28;20113;-81
2023/06/24 10:34:48;;;;;;;1.33;1.10;;;31.10;52.60;;;;;;4996209;28;20069;-81
2023/06/24 10:37:20;;;;;;;1.50;1.20;;;31.20;52.60;;;;;;5003946;28;20041;-82
2023/06/24 10:39:49;;;;;;;3.08;1.30;;;31.40;51.50;;;;;;5000600;28;20493;-81
2023/06/24 10:42:42;;;;;;;1.33;1.00;;;31.50;51.40;;;;;;4994013;28;20057;-81
2023/06/24 10:45:12;;;;;;;1.38;1.08;;;31.70;51.40;;;;;;4992813;28;20030;-81
2023/06/24 10:47:42;;;;;;;1.35;0.90;;;31.80;50.30;;;;;;4994415;28;20041;-82
2023/06/24 10:50:11;;;;;;;1.00;0.90;;;31.90;50.70;;;;;;4991894;28;20033;-81
2023/06/24 10:52:41;;;;;;;5.93;0.95;;;32.00;49.60;;;;;;4990693;28;20030;-81
2023/06/24 10:55:07;;;;;;;1.17;1.08;;;32.20;49.30;;;;;;4995210;28;20085;-82
2023/06/24 10:57:33;;;;;;;3.55;1.70;;;32.20;48.60;;;;;;4993326;28;20113;-82
2023/06/24 11:00:01;;;;;;;1.55;1.30;;;32.20;47.10;;;;;;4993684;28;20101;-82
2023/06/24 11:02:27;;;;;;;1.98;1.30;;;32.20;49.30;;;;;;4998685;28;20018;-82
2023/06/24 11:04:57;;;;;;;2.17;1.30;;;32.30;50.70;;;;;;5008735;28;20037;-81
2023/06/24 11:07:27;;;;;;;1.25;1.02;;;32.50;50.60;;;;;;5000147;28;20045;-82
2023/06/24 11:09:55;;;;;;;1.40;1.20;;;32.60;51.00;;;;;;5000968;28;20433;-82
2023/06/24 11:12:28;;;;;;;1.73;1.38;;;32.70;51.10;;;;;;4995894;28;20026;-81
2023/06/24 11:15:04;;;;;;;2.83;1.80;;;32.90;50.70;;;;;;5002055;28;20138;-81
2023/06/24 11:17:30;;;;;;;1.77;1.60;;;33.00;50.20;;;;;;5000212;28;20022;-82
2023/06/24 11:19:57;;;;;;;1.80;1.50;;;33.20;50.80;;;;;;5000433;28;20038;-82
2023/06/24 11:22:23;;;;;;;3.50;1.88;;;33.40;50.80;;;;;;5005882;28;20486;-82
2023/06/24 11:24:49;;;;;;;2.08;1.50;;;33.60;50.70;;;;;;5006456;28;20042;-86
2023/06/24 11:27:15;;;;;;;7.03;2.40;;;33.90;51.10;;;;;;5004472;28;20034;-86
2023/06/24 11:29:41;;;;;;;4.07;1.60;;;34.10;51.00;;;;;;5005186;28;20038;-86
2023/06/24 11:32:10;;;;;;;2.97;1.52;;;34.30;51.50;;;;;;4995363;28;20040;-87
2023/06/24 11:34:36;;;;;;;1.90;1.70;;;34.60;50.80;;;;;;5012220;28;20029;-87
2023/06/24 11:37:17;;;;;;;1.77;1.20;;;35.00;49.60;;;;;;5000344;28;20028;-84
2023/06/24 11:39:43;;;;;;;2.05;1.60;;;35.40;48.80;;;;;;4994002;28;20479;-85
2023/06/24 11:42:10;;;;;;;2.80;1.42;;;35.70;49.30;;;;;;4990521;28;20030;-85
2023/06/24 11:44:41;;;;;;;2.42;1.77;;;36.20;49.00;;;;;;4994431;28;20034;-85
2023/06/24 11:47:08;;;;;;;3.50;1.70;;;36.50;48.50;;;;;;4994317;28;20101;-85
2023/06/24 11:49:57;;;;;;;1.85;1.52;;;36.90;47.70;;;;;;4994789;28;20414;-84
2023/06/24 11:52:34;;;;;;;2.42;1.63;;;37.10;47.10;;;;;;4994677;28;20045;-86
2023/06/24 11:54:59;;;;;;;2.53;1.40;;;37.30;47.30;;;;;;4994319;28;20030;-83
2023/06/24 11:57:57;;;;;;;3.17;1.63;;;37.50;46.60;;;;;;4994679;28;20499;-84
2023/06/24 12:00:28;;;;;;;3.03;1.25;;;37.70;45.90;;;;;;4993483;28;20467;-84
2023/06/24 12:03:02;;;;;;;1.65;1.35;;;37.80;46.20;;;;;;4994593;28;20076;-84
2023/06/24 12:05:32;;;;;;;2.22;1.60;;;38.00;44.80;;;;;;4991141;28;20042;-83
2023/06/24 12:08:03;;;;;;;3.00;1.55;;;38.10;44.50;;;;;;4994488;28;20047;-83
2023/06/24 12:10:30;;;;;;;1.45;1.05;;;38.10;43.80;;;;;;4993546;28;20071;-84
2023/06/24 12:12:58;;;;;;;1.92;1.50;;;38.20;43.60;;;;;;4994530;28;20049;-83
2023/06/24 12:15:23;;;;;;;1.13;1.00;;;38.30;43.50;;;;;;4993975;28;20026;-83
2023/06/24 12:17:49;;;;;;;2.22;1.63;;;38.50;42.90;;;;;;4993573;28;20041;-84
2023/06/24 12:20:15;;;;;;;2.92;1.50;;;38.70;43.40;;;;;;4993042;28;20054;-85
2023/06/24 12:22:42;;;;;;;1.40;1.10;;;38.80;43.30;;;;;;4993848;28;20216;-85
2023/06/24 12:25:08;;;;;;;1.60;1.35;;;39.00;42.90;;;;;;4993779;28;20027;-85
2023/06/24 12:27:34;;;;;;;3.50;1.45;;;39.10;42.90;;;;;;4993294;28;20042;-85
2023/06/24 12:30:00;;;;;;;3.63;1.70;;;39.10;43.70;;;;;;4992826;28;20084;-85
2023/06/24 12:32:26;;;;;;;1.85;1.40;;;39.10;44.30;;;;;;4993203;28;20022;-85
2023/06/24 12:34:52;;;;;;;2.53;1.50;;;39.10;43.40;;;;;;4989676;28;20418;-85
2023/06/24 12:37:18;;;;;;;2.40;1.90;;;39.00;43.00;;;;;;4993580;28;20113;-85
2023/06/24 12:39:45;;;;;;;1.92;1.40;;;39.10;43.80;;;;;;5004173;28;20113;-85
2023/06/24 12:42:11;;;;;;;2.45;1.77;;;39.10;44.60;;;;;;4999290;28;20022;-85
2023/06/24 12:44:37;;;;;;;2.83;1.80;;;39.20;43.70;;;;;;5000074;28;20034;-85
2023/06/24 12:47:03;;;;;;;3.58;1.88;;;39.20;43.80;;;;;;4999026;28;20034;-85
2023/06/24 12:49:29;;;;;;;3.83;1.70;;;39.20;43.30;;;;;;4993910;28;20037;-85
2023/06/24 12:51:55;;;;;;;2.35;1.40;;;39.20;43.10;;;;;;4993213;28;20467;-85